Time;durP1;ratioP1;P1;durP2;ratioP2;P2;SDS_P1;SDS_P2;PMS_P1;PMS_P2;Temp;Humidity;BMP_temperature;BMP_pressure;BME280_temperature;BME280_humidity;BME280_pressure;Samples;Min_cycle;Max_cycle;Signal;HPM_P1;HPM_P2
2021/12/14 00:00:23;;;;;;;;;;;;;;;6.82;88.03;102074.44;5003083;27;20385;-76
2021/12/14 00:02:48;;;;;;;;;;;;;;;6.86;88.63;102069.88;5000525;28;20277;-76
2021/12/14 00:05:13;;;;;;;;;;;;;;;6.83;88.73;102065.63;4998704;27;20659;-76
2021/12/14 00:07:39;;;;;;;;;;;;;;;6.82;89.06;102063.06;5019215;27;19904;-76
2021/12/14 00:13:11;;;;;;;;;;;;;;;6.73;89.89;102067.03;4963189;28;19904;-76
2021/12/14 00:15:36;;;;;;;;;;;;;;;6.77;89.99;102060.69;5002100;27;20251;-76
2021/12/14 00:18:03;;;;;;;;;;;;;;;6.74;90.19;102058.22;5003981;27;19903;-75
2021/12/14 00:20:30;;;;;;;;;;;;;;;6.79;90.42;102064.06;5002151;27;19998;-76
2021/12/14 00:25:37;;;;;;;;;;;;;;;6.73;90.55;102064.41;5000589;27;20450;-76
2021/12/14 00:28:04;;;;;;;;;;;;;;;6.82;90.47;102057.81;5001160;28;20305;-76
2021/12/14 00:30:32;;;;;;;;;;;;;;;6.76;90.40;102064.25;4984776;28;20282;-76
2021/12/14 00:32:57;;;;;;;;;;;;;;;6.75;90.42;102061.69;5002399;28;20468;-76
2021/12/14 00:35:23;;;;;;;;;;;;;;;6.71;90.65;102068.88;5001960;28;20291;-76
2021/12/14 00:37:49;;;;;;;;;;;;;;;6.76;91.04;102073.91;5003203;28;20299;-76
2021/12/14 00:40:19;;;;;;;;;;;;;;;6.73;90.75;102069.66;4985482;28;20200;-75
2021/12/14 00:42:44;;;;;;;;;;;;;;;6.72;90.55;102070.59;4986530;28;20230;-75
2021/12/14 00:45:09;;;;;;;;;;;;;;;6.74;90.54;102071.38;5015852;27;20309;-76
2021/12/14 00:47:34;;;;;;;;;;;;;;;6.75;90.39;102067.78;5005102;28;20333;-76
2021/12/14 00:50:00;;;;;;;;;;;;;;;6.76;90.58;102074.75;5023157;28;20278;-75
2021/12/14 00:52:25;;;;;;;;;;;;;;;6.77;90.47;102065.94;5022598;28;20406;-76
2021/12/14 00:54:50;;;;;;;;;;;;;;;6.76;90.38;102058.13;5007837;28;20316;-75
2021/12/14 00:57:15;;;;;;;;;;;;;;;6.77;90.04;102044.91;5023247;28;20897;-76
2021/12/14 00:59:41;;;;;;;;;;;;;;;6.78;89.74;102051.00;5005522;28;20308;-75
2021/12/14 01:02:13;;;;;;;;;;;;;;;6.72;89.61;102043.44;5002121;28;19908;-75
2021/12/14 01:04:40;;;;;;;;;;;;;;;6.67;89.95;102038.41;5006550;28;19907;-76
2021/12/14 01:07:06;;;;;;;;;;;;;;;6.73;89.98;102046.00;5026021;27;20063;-75
2021/12/14 01:09:32;;;;;;;;;;;;;;;6.75;89.94;102052.00;4981945;28;19918;-75
2021/12/14 01:12:02;;;;;;;;;;;;;;;6.71;89.72;102042.56;5005363;27;20235;-76
2021/12/14 01:14:32;;;;;;;;;;;;;;;6.70;90.22;102052.25;4993085;27;20238;-75
2021/12/14 01:17:09;;;;;;;;;;;;;;;6.73;90.16;102051.25;5014058;27;19912;-76
2021/12/14 01:19:36;;;;;;;;;;;;;;;6.75;90.06;102056.44;4994670;27;19934;-75
2021/12/14 01:27:04;;;;;;;;;;;;;;;6.74;90.30;102050.31;5006732;27;19908;-76
2021/12/14 01:29:30;;;;;;;;;;;;;;;6.77;89.87;102050.16;4988494;27;20064;-76
2021/12/14 01:32:00;;;;;;;;;;;;;;;6.82;90.04;102049.91;4995657;28;19911;-76
2021/12/14 01:34:25;;;;;;;;;;;;;;;6.76;89.81;102047.63;5000695;27;20170;-76
2021/12/14 01:36:55;;;;;;;;;;;;;;;6.79;89.90;102043.03;4990263;27;19941;-77
2021/12/14 01:39:34;;;;;;;;;;;;;;;6.80;89.55;102038.63;4982735;27;20500;-77
2021/12/14 01:42:03;;;;;;;;;;;;;;;6.74;89.91;102039.81;4988756;28;19908;-76
2021/12/14 01:44:30;;;;;;;;;;;;;;;6.77;90.00;102034.38;4990778;28;20636;-76
2021/12/14 01:46:56;;;;;;;;;;;;;;;6.78;90.07;102037.84;4981285;28;19924;-76
2021/12/14 01:49:22;;;;;;;;;;;;;;;6.78;90.42;102041.34;4981631;28;20775;-76
2021/12/14 01:51:48;;;;;;;;;;;;;;;6.76;90.64;102048.44;4981498;28;20161;-76
2021/12/14 01:54:14;;;;;;;;;;;;;;;6.77;90.92;102047.53;4983201;28;20265;-76
2021/12/14 01:56:39;;;;;;;;;;;;;;;6.77;90.55;102065.94;4982695;28;19915;-76
2021/12/14 01:59:09;;;;;;;;;;;;;;;6.76;90.64;102064.25;4984678;28;20215;-76
2021/12/14 02:01:46;;;;;;;;;;;;;;;6.76;90.55;102071.28;4970314;28;19961;-76
2021/12/14 02:04:16;;;;;;;;;;;;;;;6.76;90.88;102064.25;4965257;28;20676;-76
2021/12/14 02:06:41;;;;;;;;;;;;;;;6.75;90.85;102045.91;4970958;28;20691;-77
2021/12/14 02:09:11;;;;;;;;;;;;;;;6.72;90.73;102041.66;4990586;28;19904;-76
2021/12/14 02:11:38;;;;;;;;;;;;;;;6.75;90.46;102056.44;4964407;28;20812;-76
2021/12/14 02:14:03;;;;;;;;;;;;;;;6.82;90.46;102057.81;4974105;28;19912;-76
2021/12/14 02:16:28;;;;;;;;;;;;;;;6.77;90.32;102046.66;4989283;28;19912;-76
2021/12/14 02:18:55;;;;;;;;;;;;;;;6.81;90.31;102056.09;4994883;28;19914;-76
2021/12/14 02:21:20;;;;;;;;;;;;;;;6.73;90.82;102043.34;4981236;28;19923;-75
2021/12/14 02:23:46;;;;;;;;;;;;;;;6.81;90.54;102041.19;4963624;28;20270;-76
2021/12/14 02:26:13;;;;;;;;;;;;;;;6.85;90.47;102032.19;4983593;28;19908;-76
2021/12/14 02:28:38;;;;;;;;;;;;;;;6.85;90.37;102026.06;4982610;28;20275;-76
2021/12/14 02:31:04;;;;;;;;;;;;;;;6.78;90.66;102035.22;4982183;28;20640;-76
2021/12/14 02:33:32;;;;;;;;;;;;;;;6.80;90.50;102018.44;4964190;28;19968;-75
2021/12/14 02:35:57;;;;;;;;;;;;;;;6.80;90.49;102028.09;4961548;28;19908;-76
2021/12/14 02:38:22;;;;;;;;;;;;;;;6.76;90.77;102034.47;4974463;28;19935;-76
2021/12/14 02:40:54;;;;;;;;;;;;;;;6.74;91.01;102039.81;4974817;28;20811;-76
2021/12/14 02:43:25;;;;;;;;;;;;;;;6.82;90.66;102027.06;4986026;28;20301;-76
2021/12/14 02:45:51;;;;;;;;;;;;;;;6.80;90.77;102034.22;4986243;27;20761;-76
2021/12/14 02:48:16;;;;;;;;;;;;;;;6.79;91.15;102021.97;4984032;27;19914;-76
2021/12/14 02:50:43;;;;;;;;;;;;;;;6.84;90.34;102009.44;4999924;28;19908;-75
2021/12/14 02:53:09;;;;;;;;;;;;;;;6.84;90.50;101998.06;5000074;28;20390;-76
2021/12/14 02:55:34;;;;;;;;;;;;;;;6.84;90.47;102008.59;5002149;27;20304;-75
2021/12/14 02:58:02;;;;;;;;;;;;;;;6.85;90.18;101994.50;5001611;28;20282;-75
2021/12/14 03:00:31;;;;;;;;;;;;;;;6.86;89.62;101991.78;4999953;27;20291;-75
2021/12/14 03:02:57;;;;;;;;;;;;;;;6.87;89.62;101988.22;4994914;27;20341;-76
2021/12/14 03:05:24;;;;;;;;;;;;;;;6.93;89.52;101981.78;4981596;27;19915;-75
2021/12/14 03:07:51;;;;;;;;;;;;;;;6.87;89.17;101972.44;5007590;28;20111;-75
2021/12/14 03:12:43;;;;;;;;;;;;;;;6.85;89.52;101955.03;5003743;27;19911;-75
2021/12/14 03:15:25;;;;;;;;;;;;;;;6.93;89.20;101970.41;4994922;27;20169;-75
2021/12/14 03:17:52;;;;;;;;;;;;;;;6.95;87.54;101992.22;4966197;28;19900;-75
2021/12/14 03:20:21;;;;;;;;;;;;;;;6.95;87.37;101989.59;4982546;28;19923;-75
2021/12/14 03:23:00;;;;;;;;;;;;;;;6.98;88.15;101994.69;4958384;28;20012;-75
2021/12/14 03:25:26;;;;;;;;;;;;;;;7.01;87.59;101984.84;4980314;28;20350;-76
2021/12/14 03:27:52;;;;;;;;;;;;;;;7.06;88.12;101987.22;4981366;28;20088;-75
2021/12/14 03:30:26;;;;;;;;;;;;;;;7.02;88.40;101968.13;4980567;28;20269;-75
2021/12/14 03:32:52;;;;;;;;;;;;;;;6.98;88.87;101976.25;4981665;28;19922;-75
2021/12/14 03:35:19;;;;;;;;;;;;;;;6.95;89.16;101969.41;4968784;28;19911;-75
2021/12/14 03:37:44;;;;;;;;;;;;;;;6.92;89.63;101961.66;4990081;27;20271;-75
2021/12/14 03:40:10;;;;;;;;;;;;;;;6.93;89.76;101954.63;4990725;28;20590;-75
2021/12/14 03:42:37;;;;;;;;;;;;;;;6.84;90.15;101948.94;4970832;27;20205;-75
2021/12/14 03:45:15;;;;;;;;;;;;;;;6.82;90.58;101948.13;5000204;27;20178;-75
2021/12/14 03:47:44;;;;;;;;;;;;;;;6.85;90.39;101942.75;4972820;27;19961;-75
2021/12/14 03:50:11;;;;;;;;;;;;;;;6.85;90.11;101934.84;4972746;28;20215;-75
2021/12/14 03:52:37;;;;;;;;;;;;;;;6.83;90.56;101933.22;5002084;28;20043;-75
2021/12/14 03:55:24;;;;;;;;;;;;;;;6.84;90.58;101950.72;4982245;28;20397;-77
2021/12/14 03:57:49;;;;;;;;;;;;;;;6.86;89.83;101939.16;4983719;28;19912;-76
2021/12/14 04:00:16;;;;;;;;;;;;;;;6.95;89.11;101939.59;5003123;27;20254;-77
2021/12/14 04:02:41;;;;;;;;;;;;;;;7.14;87.48;101953.44;4988297;28;20407;-77
2021/12/14 04:05:11;;;;;;;;;;;;;;;7.17;86.36;101962.97;4972569;27;20338;-77
2021/12/14 04:07:36;;;;;;;;;;;;;;;7.19;86.42;101964.59;5012166;27;20129;-77
2021/12/14 04:10:02;;;;;;;;;;;;;;;7.16;85.06;101959.50;4996071;28;20330;-77
2021/12/14 04:12:27;;;;;;;;;;;;;;;7.31;84.07;101976.19;4979601;28;20316;-78
2021/12/14 04:14:53;;;;;;;;;;;;;;;7.25;84.29;101973.91;4994225;28;20148;-77
2021/12/14 04:17:19;;;;;;;;;;;;;;;7.28;84.33;101975.53;4992742;28;19912;-77
2021/12/14 04:19:44;;;;;;;;;;;;;;;7.33;84.15;101986.66;4992242;28;20003;-77
2021/12/14 04:22:15;;;;;;;;;;;;;;;7.35;84.37;101984.78;5007349;28;19904;-77
2021/12/14 04:24:40;;;;;;;;;;;;;;;7.30;84.24;101992.09;4989187;28;20162;-77
2021/12/14 04:27:10;;;;;;;;;;;;;;;7.41;83.65;101987.06;4986172;28;20866;-77
2021/12/14 04:29:35;;;;;;;;;;;;;;;7.43;83.97;101989.63;4987344;28;19904;-75
2021/12/14 04:32:01;;;;;;;;;;;;;;;7.39;84.15;101981.06;4969590;28;20081;-75
2021/12/14 04:34:27;;;;;;;;;;;;;;;7.31;84.18;101981.47;4969891;28;20052;-75
2021/12/14 04:36:54;;;;;;;;;;;;;;;7.32;84.46;101988.44;4970656;28;19904;-75
2021/12/14 04:53:10;;;;;;;;;;;;;;;7.44;84.07;101984.25;4969547;27;19980;-75
2021/12/14 04:55:39;;;;;;;;;;;;;;;7.38;84.37;101982.00;4984821;27;19915;-75
2021/12/14 04:58:04;;;;;;;;;;;;;;;7.37;84.23;101986.41;4966537;27;20626;-75
2021/12/14 05:00:50;;;;;;;;;;;;;;;7.44;83.84;101984.25;4963427;27;20066;-75
2021/12/14 05:03:17;;;;;;;;;;;;;;;7.45;83.71;101993.03;4966779;27;19911;-75
2021/12/14 05:05:49;;;;;;;;;;;;;;;7.47;83.96;101997.25;4963580;27;19986;-75
2021/12/14 05:10:44;;;;;;;;;;;;;;;7.48;83.65;102006.88;4957755;27;20771;-75
2021/12/14 05:13:09;;;;;;;;;;;;;;;7.43;83.94;102001.03;4957760;27;20393;-76
2021/12/14 05:15:38;;;;;;;;;;;;;;;7.43;84.06;102003.66;4944404;27;20755;-75
2021/12/14 05:18:10;;;;;;;;;;;;;;;7.38;84.36;102009.16;4951589;28;19911;-75
2021/12/14 05:20:35;;;;;;;;;;;;;;;7.36;84.23;102008.41;4946767;27;20700;-77
2021/12/14 05:23:01;;;;;;;;;;;;;;;7.34;84.52;102002.34;4970577;27;19907;-79
2021/12/14 05:25:28;;;;;;;;;;;;;;;7.35;85.07;102000.59;4963060;27;20271;-79
2021/12/14 05:27:57;;;;;;;;;;;;;;;7.39;84.86;101999.50;4946779;28;20123;-78
2021/12/14 05:30:24;;;;;;;;;;;;;;;7.34;85.23;101994.47;4956732;27;19920;-77
2021/12/14 05:32:55;;;;;;;;;;;;;;;7.37;84.96;101996.06;4963427;28;20322;-77
2021/12/14 05:35:20;;;;;;;;;;;;;;;7.28;85.12;102001.88;4968838;27;20961;-80
2021/12/14 05:37:49;;;;;;;;;;;;;;;7.37;85.51;102002.22;4959547;28;19981;-78
2021/12/14 05:40:24;;;;;;;;;;;;;;;7.37;85.11;101996.94;4968433;27;20572;-77
2021/12/14 05:43:07;;;;;;;;;;;;;;;7.21;85.55;102004.81;4981223;27;20397;-78
2021/12/14 05:45:43;;;;;;;;;;;;;;;7.25;85.95;102007.28;4975422;27;20367;-77
2021/12/14 05:48:09;;;;;;;;;;;;;;;7.26;86.05;102006.34;4961360;27;19918;-76
2021/12/14 05:50:37;;;;;;;;;;;;;;;7.24;86.10;102000.34;4960228;27;20220;-76
2021/12/14 05:53:03;;;;;;;;;;;;;;;7.32;86.23;102000.75;4969984;27;20419;-76
2021/12/14 05:55:30;;;;;;;;;;;;;;;7.29;86.17;102003.53;4977637;27;19940;-80
2021/12/14 05:57:55;;;;;;;;;;;;;;;7.29;86.24;101995.66;4988889;27;19907;-77
2021/12/14 06:00:21;;;;;;;;;;;;;;;7.35;85.78;101992.69;5000373;27;20268;-77
2021/12/14 06:02:46;;;;;;;;;;;;;;;7.25;86.08;101992.34;5001905;27;20094;-78
2021/12/14 06:05:12;;;;;;;;;;;;;;;7.21;86.59;101996.91;5007807;27;20351;-80
2021/12/14 06:07:37;;;;;;;;;;;;;;;7.16;86.92;101991.06;4990988;27;20609;-77
2021/12/14 06:10:03;;;;;;;;;;;;;;;7.31;86.37;101991.16;4989292;27;20105;-78
2021/12/14 06:12:29;;;;;;;;;;;;;;;7.19;86.86;101985.63;4991784;28;20394;-77
2021/12/14 06:14:57;;;;;;;;;;;;;;;7.17;87.12;101989.28;4977241;28;19907;-76
2021/12/14 06:17:23;;;;;;;;;;;;;;;7.02;87.62;101990.94;4980491;28;19952;-80
2021/12/14 06:19:49;;;;;;;;;;;;;;;7.14;87.49;101990.28;4984279;28;20091;-77
2021/12/14 06:22:16;;;;;;;;;;;;;;;7.37;86.71;101996.06;5023860;27;20530;-77
2021/12/14 06:24:42;;;;;;;;;;;;;;;7.14;87.03;101978.94;5005608;27;19915;-77
2021/12/14 06:27:10;;;;;;;;;;;;;;;7.10;87.59;101983.50;5006289;27;20227;-77
2021/12/14 06:29:40;;;;;;;;;;;;;;;7.10;87.68;101985.28;5009804;27;20019;-80
2021/12/14 06:32:29;;;;;;;;;;;;;;;7.11;87.88;102000.16;5005765;27;19918;-80
2021/12/14 06:34:55;;;;;;;;;;;;;;;7.13;87.88;102009.66;5013811;27;20025;-78
2021/12/14 06:37:41;;;;;;;;;;;;;;;7.13;87.75;102007.00;4975406;28;21256;-76
2021/12/14 06:40:13;;;;;;;;;;;;;;;7.25;87.37;102012.53;5003287;28;19931;-76
2021/12/14 06:42:57;;;;;;;;;;;;;;;7.19;87.37;102008.47;5006071;28;20215;-77
2021/12/14 06:45:23;;;;;;;;;;;;;;;7.11;88.05;102005.44;4988725;27;20494;-76
2021/12/14 06:47:49;;;;;;;;;;;;;;;7.03;88.20;102004.03;4991407;27;20412;-76
2021/12/14 06:50:16;;;;;;;;;;;;;;;7.22;88.06;102013.59;4986468;27;19953;-76
2021/12/14 06:52:42;;;;;;;;;;;;;;;7.08;88.08;102016.97;5026488;27;20195;-76
2021/12/14 06:55:07;;;;;;;;;;;;;;;7.05;88.42;102010.06;5005831;27;20066;-77
2021/12/14 06:57:32;;;;;;;;;;;;;;;7.05;88.48;102011.88;5005837;27;20191;-75
2021/12/14 06:59:58;;;;;;;;;;;;;;;7.18;88.13;102012.06;5022567;27;21239;-76
2021/12/14 07:02:23;;;;;;;;;;;;;;;7.14;87.81;102013.16;5005188;27;19907;-75
2021/12/14 07:04:49;;;;;;;;;;;;;;;7.26;87.77;102028.25;5007260;27;20905;-77
2021/12/14 07:07:15;;;;;;;;;;;;;;;7.32;86.56;102013.91;4986837;27;19908;-77
2021/12/14 07:09:44;;;;;;;;;;;;;;;7.12;87.69;102018.50;4987982;27;19968;-77
2021/12/14 07:12:14;;;;;;;;;;;;;;;7.03;88.19;102024.25;4976673;27;20239;-77
2021/12/14 07:14:44;;;;;;;;;;;;;;;7.04;88.32;102044.38;4997564;27;19952;-77
2021/12/14 07:17:10;;;;;;;;;;;;;;;7.03;88.47;102042.66;5003792;27;19915;-77
2021/12/14 07:19:51;;;;;;;;;;;;;;;7.10;88.45;102045.84;5005198;27;19987;-77
2021/12/14 07:22:24;;;;;;;;;;;;;;;7.07;88.44;102046.84;5005361;27;20218;-77
2021/12/14 07:25:00;;;;;;;;;;;;;;;7.08;88.66;102061.72;5007913;27;20401;-77
2021/12/14 07:27:29;;;;;;;;;;;;;;;7.08;88.20;102058.22;5003252;27;20317;-77
2021/12/14 07:30:07;;;;;;;;;;;;;;;7.18;87.84;102059.44;4992187;27;20268;-77
2021/12/14 07:32:59;;;;;;;;;;;;;;;7.18;87.76;102076.06;4999741;27;20329;-77
2021/12/14 07:35:26;;;;;;;;;;;;;;;7.22;87.67;102063.59;5015409;27;19911;-78
2021/12/14 07:37:52;;;;;;;;;;;;;;;7.20;87.51;102060.19;5002310;27;19915;-78
2021/12/14 07:40:17;;;;;;;;;;;;;;;7.14;87.67;102053.47;5000725;27;20390;-78
2021/12/14 07:42:42;;;;;;;;;;;;;;;7.17;88.13;102053.31;5018349;27;19992;-78
2021/12/14 07:45:07;;;;;;;;;;;;;;;7.18;87.99;102052.38;4986589;27;20371;-78
2021/12/14 07:47:33;;;;;;;;;;;;;;;7.18;87.85;102065.53;4999410;27;20079;-78
2021/12/14 07:49:59;;;;;;;;;;;;;;;7.21;87.64;102070.63;4999168;27;20774;-77
2021/12/14 07:52:25;;;;;;;;;;;;;;;7.18;87.38;102077.88;4995344;28;20321;-79
2021/12/14 07:54:51;;;;;;;;;;;;;;;7.21;87.02;102081.16;4964991;28;20304;-79
2021/12/14 07:57:35;;;;;;;;;;;;;;;7.40;86.68;102095.97;4964374;28;20312;-79
2021/12/14 08:00:04;;;;;;;;;;;;;;;7.27;86.91;102100.22;4961228;28;19924;-79
2021/12/14 08:02:33;;;;;;;;;;;;;;;7.25;87.16;102107.31;4965512;28;20745;-80
2021/12/14 08:05:11;;;;;;;;;;;;;;;7.26;86.79;102115.13;4961351;28;19916;-79
2021/12/14 08:07:41;;;;;;;;;;;;;;;7.34;86.73;102109.47;4960847;28;19912;-79
2021/12/14 08:10:24;;;;;;;;;;;;;;;7.39;86.85;102104.84;4960375;28;20151;-78
2021/12/14 08:12:52;;;;;;;;;;;;;;;7.21;86.04;102107.50;4963595;28;20103;-78
2021/12/14 08:15:31;;;;;;;;;;;;;;;7.35;85.45;102113.81;4978865;28;20482;-77
2021/12/14 08:18:01;;;;;;;;;;;;;;;7.35;84.99;102112.03;4942883;28;20190;-77
2021/12/14 08:20:26;;;;;;;;;;;;;;;7.35;85.34;102119.09;4957687;28;20049;-80
2021/12/14 08:22:55;;;;;;;;;;;;;;;7.37;85.30;102128.63;4944685;28;20521;-77
2021/12/14 08:25:27;;;;;;;;;;;;;;;7.41;84.72;102124.03;4929401;28;20335;-77
2021/12/14 08:28:00;;;;;;;;;;;;;;;7.36;85.24;102120.78;4925170;28;20049;-77
2021/12/14 08:30:26;;;;;;;;;;;;;;;7.33;85.48;102120.94;4930246;28;20357;-77
2021/12/14 08:32:51;;;;;;;;;;;;;;;7.34;85.10;102123.50;4939999;28;20045;-78
2021/12/14 08:35:16;;;;;;;;;;;;;;;7.35;85.35;102113.81;4976614;28;20243;-78
2021/12/14 08:37:43;;;;;;;;;;;;;;;7.37;85.07;102118.09;4973058;28;20766;-77
2021/12/14 08:40:38;;;;;;;;;;;;;;;7.35;85.29;102117.31;4957142;28;19920;-78
2021/12/14 08:43:19;;;;;;;;;;;;;;;7.43;85.42;102121.31;4975975;28;20267;-77
2021/12/14 08:45:48;;;;;;;;;;;;;;;7.47;85.10;102133.38;4995201;27;20219;-77
2021/12/14 08:48:14;;;;;;;;;;;;;;;7.39;85.13;102133.81;5018023;28;20287;-78
2021/12/14 08:50:44;;;;;;;;;;;;;;;7.49;85.39;102137.63;4989307;28;20167;-79
2021/12/14 08:53:10;;;;;;;;;;;;;;;7.51;85.13;102133.13;4962363;28;20726;-77
2021/12/14 08:55:36;;;;;;;;;;;;;;;7.52;85.49;102131.34;4974839;28;19905;-77
2021/12/14 08:58:02;;;;;;;;;;;;;;;7.45;85.23;102130.81;4978067;28;19969;-77
2021/12/14 09:00:32;;;;;;;;;;;;;;;7.39;84.99;102133.81;4976087;28;20398;-76
2021/12/14 09:03:00;;;;;;;;;;;;;;;7.37;84.94;102131.25;4976109;28;20516;-76
2021/12/14 09:05:26;;;;;;;;;;;;;;;7.43;85.05;102132.72;4961051;28;20347;-76
2021/12/14 09:07:52;;;;;;;;;;;;;;;7.46;84.36;102131.66;4970218;28;20150;-76
2021/12/14 09:10:18;;;;;;;;;;;;;;;7.50;84.33;102128.81;4949968;28;20159;-76
2021/12/14 09:12:45;;;;;;;;;;;;;;;7.48;83.70;102127.19;4973860;28;20203;-77
2021/12/14 09:15:15;;;;;;;;;;;;;;;7.46;83.76;102126.41;4964470;28;20663;-76
2021/12/14 09:17:40;;;;;;;;;;;;;;;7.48;84.00;102128.03;4941969;28;19909;-79
2021/12/14 09:20:09;;;;;;;;;;;;;;;7.56;83.82;102122.34;4956263;28;19934;-76
2021/12/14 09:22:38;;;;;;;;;;;;;;;7.55;83.47;102126.75;4966248;28;20334;-80
2021/12/14 09:25:03;;;;;;;;;;;;;;;7.57;83.85;102121.41;4951698;28;19909;-76
2021/12/14 09:27:31;;;;;;;;;;;;;;;7.56;83.49;102122.34;4995637;28;20661;-77
2021/12/14 09:29:57;;;;;;;;;;;;;;;7.60;83.18;102131.78;4973407;28;20800;-77
2021/12/14 09:32:27;;;;;;;;;;;;;;;7.54;83.28;102137.38;4976555;28;20005;-78
2021/12/14 09:34:52;;;;;;;;;;;;;;;7.53;83.38;102131.28;4984806;28;19908;-78
2021/12/14 09:37:17;;;;;;;;;;;;;;;7.64;83.11;102141.25;4993972;28;19915;-80
2021/12/14 09:39:45;;;;;;;;;;;;;;;7.60;82.34;102138.84;4987595;28;20311;-77
2021/12/14 09:42:13;;;;;;;;;;;;;;;7.60;82.82;102144.09;4981871;28;20585;-77
2021/12/14 09:44:38;;;;;;;;;;;;;;;7.61;83.14;102143.19;4979857;28;19908;-77
2021/12/14 09:47:12;;;;;;;;;;;;;;;7.61;83.49;102143.19;4982840;28;20419;-76
2021/12/14 09:49:37;;;;;;;;;;;;;;;7.60;82.52;102144.97;5006038;28;20378;-77
2021/12/14 09:52:23;;;;;;;;;;;;;;;7.68;82.59;102149.81;4982519;28;19928;-78
2021/12/14 09:54:48;;;;;;;;;;;;;;;7.66;83.08;102154.31;4974584;28;20186;-78
2021/12/14 09:57:16;;;;;;;;;;;;;;;7.75;82.65;102156.44;4924027;27;19937;-81
2021/12/14 09:59:41;;;;;;;;;;;;;;;7.77;82.54;102148.44;4964840;28;19904;-80
2021/12/14 10:02:09;;;;;;;;;;;;;;;7.80;82.39;102156.19;5008923;28;20063;-79
2021/12/14 10:04:42;;;;;;;;;;;;;;;7.79;82.09;102154.50;5012648;28;19912;-79
2021/12/14 10:07:09;;;;;;;;;;;;;;;7.79;82.23;102144.81;5000839;28;20168;-80
2021/12/14 10:09:39;;;;;;;;;;;;;;;7.84;82.54;102153.31;4982372;28;20294;-77
2021/12/14 10:12:48;;;;;;;;;;;;;;;7.83;82.09;102146.34;4982355;28;20147;-77
2021/12/14 10:15:09;;;;;;;;;;;;;;;7.98;81.32;102143.78;4995002;28;19912;-78
2021/12/14 10:17:34;;;;;;;;;;;;;;;7.78;81.31;102145.72;4985078;28;20299;-78
2021/12/14 10:19:59;;;;;;;;;;;;;;;7.89;81.86;102140.72;4982117;28;19924;-78
2021/12/14 10:22:26;;;;;;;;;;;;;;;7.88;81.41;102154.84;5007666;28;20189;-79
2021/12/14 10:24:52;;;;;;;;;;;;;;;7.89;81.19;102150.41;5004016;28;19908;-79
2021/12/14 10:27:18;;;;;;;;;;;;;;;7.90;80.88;102155.59;5002460;28;20324;-78
2021/12/14 10:29:43;;;;;;;;;;;;;;;7.93;81.17;102164.28;4989484;28;20846;-78
2021/12/14 10:32:10;;;;;;;;;;;;;;;7.99;81.24;102170.06;4986086;28;20040;-79
2021/12/14 10:34:39;;;;;;;;;;;;;;;7.94;80.82;102168.59;5004188;28;20149;-79
2021/12/14 10:37:15;;;;;;;;;;;;;;;7.96;81.12;102164.13;5004474;28;19907;-79
2021/12/14 10:42:40;;;;;;;;;;;;;;;7.85;80.98;102160.28;5003308;28;20486;-81
2021/12/14 10:45:10;;;;;;;;;;;;;;;8.00;80.82;102152.47;5002040;27;20843;-83
2021/12/14 10:47:35;;;;;;;;;;;;;;;7.95;80.49;102151.88;4988433;28;20637;-80
2021/12/14 10:50:01;;;;;;;;;;;;;;;8.02;80.45;102150.59;5013544;28;20943;-80
2021/12/14 10:52:28;;;;;;;;;;;;;;;8.14;80.34;102149.06;4999881;28;20268;-79
2021/12/14 10:54:54;;;;;;;;;;;;;;;8.10;80.74;102142.28;5008047;28;19970;-79
2021/12/14 10:57:21;;;;;;;;;;;;;;;8.09;80.48;102146.66;4982881;28;20115;-79
2021/12/14 10:59:48;;;;;;;;;;;;;;;8.05;80.48;102146.00;4987247;28;20125;-79
2021/12/14 11:02:13;;;;;;;;;;;;;;;8.07;81.33;102143.28;4986489;28;20029;-77
2021/12/14 11:04:40;;;;;;;;;;;;;;;8.07;80.71;102138.00;4987243;28;20315;-78
2021/12/14 11:07:10;;;;;;;;;;;;;;;8.02;80.97;102135.66;5008475;27;20051;-78
2021/12/14 11:09:42;;;;;;;;;;;;;;;8.07;81.17;102143.28;5004263;28;19916;-78
2021/12/14 11:12:37;;;;;;;;;;;;;;;8.11;80.93;102139.53;4960661;28;19977;-78
2021/12/14 11:15:03;;;;;;;;;;;;;;;8.15;79.65;102141.06;4978818;28;20020;-78
2021/12/14 11:20:31;;;;;;;;;;;;;;;8.10;80.20;102126.44;5009585;27;20765;-78
2021/12/14 11:23:06;;;;;;;;;;;;;;;8.15;80.29;102125.25;4993007;28;20000;-79
2021/12/14 11:25:32;;;;;;;;;;;;;;;8.15;80.10;102130.53;5008541;28;20158;-79
2021/12/14 11:28:00;;;;;;;;;;;;;;;8.13;80.36;102121.00;5017614;27;20243;-79
2021/12/14 11:30:30;;;;;;;;;;;;;;;8.21;80.31;102116.97;5012865;27;20469;-80
2021/12/14 11:33:07;;;;;;;;;;;;;;;8.20;80.05;102111.78;5012566;27;20291;-79
2021/12/14 11:35:34;;;;;;;;;;;;;;;8.27;80.04;102114.94;5016685;27;20144;-79
2021/12/14 11:38:00;;;;;;;;;;;;;;;8.29;78.93;102116.56;4984736;28;19945;-79
2021/12/14 11:40:25;;;;;;;;;;;;;;;8.20;79.62;102114.44;4967258;28;19932;-78
2021/12/14 11:42:51;;;;;;;;;;;;;;;8.24;79.52;102108.88;4981246;28;20105;-78
2021/12/14 11:45:18;;;;;;;;;;;;;;;8.36;80.19;102111.75;4972877;28;20387;-78
2021/12/14 11:47:51;;;;;;;;;;;;;;;8.36;79.28;102111.75;4964473;28;19912;-77
2021/12/14 11:50:27;;;;;;;;;;;;;;;8.44;79.40;102109.53;4986975;28;19915;-78
2021/12/14 11:53:13;;;;;;;;;;;;;;;8.32;78.47;102110.22;4907412;28;19912;-78
2021/12/14 11:56:05;;;;;;;;;;;;;;;8.43;78.63;102113.09;4899031;28;20411;-78
2021/12/14 11:58:33;;;;;;;;;;;;;;;8.37;78.81;102113.47;4920711;28;20396;-78
2021/12/14 12:01:04;;;;;;;;;;;;;;;8.36;79.09;102111.75;4889873;28;20663;-78
2021/12/14 12:03:49;;;;;;;;;;;;;;;8.35;78.93;102125.91;4918614;27;20353;-78
2021/12/14 12:06:25;;;;;;;;;;;;;;;8.34;79.24;102125.03;4936372;27;19911;-77
2021/12/14 12:11:39;;;;;;;;;;;;;;;8.34;79.31;102105.75;4897375;28;20443;-77
2021/12/14 12:14:25;;;;;;;;;;;;;;;8.35;79.51;102110.09;4889622;28;20359;-78
2021/12/14 12:16:51;;;;;;;;;;;;;;;8.33;79.11;102104.03;4919703;28;19916;-77
2021/12/14 12:19:23;;;;;;;;;;;;;;;8.37;78.97;102108.19;4917795;27;20406;-77
2021/12/14 12:21:50;;;;;;;;;;;;;;;8.50;78.52;102109.22;4900703;28;19924;-78
2021/12/14 12:24:32;;;;;;;;;;;;;;;8.54;78.64;102105.44;4919676;27;19942;-77
2021/12/14 12:27:16;;;;;;;;;;;;;;;8.44;78.19;102104.25;4919899;28;19908;-77
2021/12/14 12:29:42;;;;;;;;;;;;;;;8.45;78.28;102097.22;4934492;27;19904;-80
2021/12/14 12:32:17;;;;;;;;;;;;;;;8.51;78.63;102105.63;4909867;27;19994;-77
2021/12/14 12:34:43;;;;;;;;;;;;;;;8.56;77.95;102105.38;4935505;28;20256;-79
2021/12/14 12:37:11;;;;;;;;;;;;;;;8.48;77.89;102104.97;4921839;28;20117;-79
2021/12/14 12:39:36;;;;;;;;;;;;;;;8.47;78.98;102093.56;4946211;27;19912;-79
2021/12/14 12:42:02;;;;;;;;;;;;;;;8.55;78.32;102096.59;4938383;28;19914;-78
2021/12/14 12:44:35;;;;;;;;;;;;;;;8.46;77.95;102102.44;4927634;28;20823;-77
2021/12/14 12:47:00;;;;;;;;;;;;;;;8.37;79.10;102092.38;4933935;27;20071;-79
2021/12/14 12:49:26;;;;;;;;;;;;;;;8.47;78.66;102101.47;4924686;28;19912;-81
2021/12/14 12:51:56;;;;;;;;;;;;;;;8.48;78.32;102100.53;4901007;28;20152;-79
2021/12/14 12:54:21;;;;;;;;;;;;;;;8.41;78.82;102093.88;4901327;28;19912;-78
2021/12/14 12:56:48;;;;;;;;;;;;;;;8.38;78.95;102094.91;4908724;28;20089;-79
2021/12/14 12:59:16;;;;;;;;;;;;;;;8.45;78.88;102089.28;4909481;28;20627;-80
2021/12/14 13:01:41;;;;;;;;;;;;;;;8.55;79.20;102090.47;4909237;28;20344;-79
2021/12/14 13:04:07;;;;;;;;;;;;;;;8.61;78.78;102089.25;4896513;28;19931;-78
2021/12/14 13:06:32;;;;;;;;;;;;;;;8.62;78.59;102085.69;4904458;28;20257;-79
2021/12/14 13:08:58;;;;;;;;;;;;;;;8.58;78.35;102088.50;4911439;28;20059;-79
2021/12/14 13:11:24;;;;;;;;;;;;;;;8.57;78.24;102078.91;4888258;28;20024;-79
2021/12/14 13:13:51;;;;;;;;;;;;;;;8.64;78.61;102089.91;4909316;28;20262;-79
2021/12/14 13:16:17;;;;;;;;;;;;;;;8.66;78.80;102077.50;4882232;28;19909;-79
2021/12/14 13:18:45;;;;;;;;;;;;;;;8.62;78.43;102086.53;4901541;28;20342;-78
2021/12/14 13:21:14;;;;;;;;;;;;;;;8.68;78.59;102090.59;4904829;28;20762;-78
2021/12/14 13:23:44;;;;;;;;;;;;;;;8.70;78.24;102088.69;4906230;28;19913;-78
2021/12/14 13:26:23;;;;;;;;;;;;;;;8.70;79.08;102093.97;4896327;28;19908;-77
2021/12/14 13:28:49;;;;;;;;;;;;;;;8.67;78.70;102095.03;4917400;28;19904;-79
2021/12/14 13:31:34;;;;;;;;;;;;;;;8.69;78.19;102097.59;4903874;28;19942;-78
2021/12/14 13:33:59;;;;;;;;;;;;;;;8.68;78.48;102095.88;4908882;28;20619;-78